Riverside, Texas
Current Conditions -  °F | °C
As of 11:53 PM on Saturday 25 Oct 2014 (Local Time) from KUTS Reporting Station
Clear Clear  
Wind Chill: 68°   Ceiling: Unl
Heat Index: 68°   Visibility: 10mi
Dew Point: 57°   Wind: 7mph
Humidity: 68%   Direction: 180°S
Pressure: 30.09"   Gusts: NA
Location:  30.85°N, 95.4°W
Report Text: KUTS 260453Z AUTO 18006KT 10SM CLR 20/14 A3009 RMK AO2 SLP186 T02000139
Loading
Personal Weather Stations






























Interactive Weather Map
Tropical Storm Tracking
New forecast layout! Learn more

10-Day Weather Forecast

Advertisements
Track Severe Weather on mobile